Youngsville, Pennsylvania
Current Conditions -  °F | °C
As of 9:35 PM on Wednesday 17 Dec 2014 (Local Time) from KJHW Reporting Station
Overcast Overcast  
Wind Chill: 17°   Ceiling: 2500
Heat Index: 27°   Visibility: 10mi
Dew Point: 21°   Wind: 10mph
Humidity: 80%   Direction: 270°W
Pressure: 29.99"   Gusts: NA
Location:  41.85°N, 79.32°W
Report Text: KJHW 180235Z 27009KT 10SM SCT015 BKN025 OVC032 M03/M06 A2999 RMK AO1
Loading
Personal Weather Stations






























Interactive Weather Map New forecast layout! Learn more

10-Day Weather Forecast

Advertisements
Track Severe Weather on mobile